createdAt,value
2023-01-25T00:00:08.226Z,2.99
2023-01-25T00:02:35.839Z,3.21
2023-01-25T00:05:03.251Z,3.30
2023-01-25T00:07:30.654Z,3.15
2023-01-25T00:09:58.104Z,3.11
2023-01-25T00:12:25.623Z,3.07
2023-01-25T00:14:53.013Z,2.82
2023-01-25T00:17:21.786Z,2.42
2023-01-25T00:19:49.162Z,2.37
2023-01-25T00:22:16.587Z,2.49
2023-01-25T00:24:44.073Z,2.54
2023-01-25T00:27:11.585Z,2.73
2023-01-25T00:29:39.123Z,2.54
2023-01-25T00:32:37.860Z,2.52
2023-01-25T00:35:06.692Z,2.70
2023-01-25T00:37:37.592Z,2.33
2023-01-25T00:40:06.930Z,2.36
2023-01-25T00:42:34.468Z,2.54
2023-01-25T00:45:03.071Z,2.46
2023-01-25T00:47:30.498Z,2.45
2023-01-25T00:49:59.358Z,2.69
2023-01-25T00:52:28.512Z,2.87
2023-01-25T00:54:56.950Z,2.75
2023-01-25T00:57:24.404Z,2.24
2023-01-25T00:59:51.770Z,2.27
2023-01-25T01:02:19.178Z,2.16
2023-01-25T01:04:46.680Z,2.14
2023-01-25T01:07:16.276Z,2.02
2023-01-25T01:09:43.798Z,2.16
2023-01-25T01:12:11.253Z,2.07
2023-01-25T01:14:38.700Z,2.45
2023-01-25T01:17:06.116Z,2.47
2023-01-25T01:19:33.693Z,2.59
2023-01-25T01:22:01.076Z,2.34
2023-01-25T01:24:30.115Z,2.57
2023-01-25T01:26:57.642Z,2.76
2023-01-25T01:29:25.336Z,2.35
2023-01-25T01:31:53.567Z,2.35
2023-01-25T01:34:21.128Z,2.50
2023-01-25T01:36:48.497Z,2.63
2023-01-25T01:39:16.066Z,2.72
2023-01-25T01:41:44.819Z,2.77
2023-01-25T01:44:17.796Z,2.69
2023-01-25T01:46:52.371Z,2.69
2023-01-25T01:49:23.370Z,2.91
2023-01-25T01:51:52.108Z,2.69
2023-01-25T01:54:24.045Z,2.47
2023-01-25T01:56:57.073Z,2.24
2023-01-25T01:59:27.324Z,2.46
2023-01-25T02:01:55.250Z,2.75
2023-01-25T02:04:23.616Z,2.55
2023-01-25T02:06:54.017Z,2.43
2023-01-25T02:09:24.621Z,2.58
2023-01-25T02:11:53.816Z,2.70
2023-01-25T02:14:21.561Z,2.81
2023-01-25T02:16:49.018Z,2.92
2023-01-25T02:19:23.195Z,2.76
2023-01-25T02:21:52.647Z,2.80
2023-01-25T02:24:22.517Z,2.87
2023-01-25T02:26:51.285Z,2.86
2023-01-25T02:29:19.547Z,2.61
2023-01-25T02:31:49.393Z,2.57
2023-01-25T02:34:16.970Z,2.65
2023-01-25T02:36:44.363Z,2.57
2023-01-25T02:39:16.662Z,2.42
2023-01-25T02:41:46.682Z,2.21
2023-01-25T02:44:17.073Z,2.43
2023-01-25T02:46:45.524Z,2.48
2023-01-25T02:49:13.169Z,2.45
2023-01-25T02:51:42.003Z,2.70
2023-01-25T02:54:11.143Z,2.64
2023-01-25T02:56:40.601Z,2.78
2023-01-25T02:59:08.295Z,2.81
2023-01-25T03:01:38.469Z,2.87
2023-01-25T03:04:06.533Z,2.79
2023-01-25T03:06:34.600Z,2.80
2023-01-25T03:09:02.434Z,2.97
2023-01-25T03:11:29.895Z,2.83
2023-01-25T03:13:57.319Z,2.79
2023-01-25T03:16:24.887Z,2.81
2023-01-25T03:18:55.457Z,2.80
2023-01-25T03:21:23.853Z,2.62
2023-01-25T03:23:56.488Z,2.83
2023-01-25T03:26:24.874Z,2.86
2023-01-25T03:28:52.418Z,2.69
2023-01-25T03:31:20.601Z,2.57
2023-01-25T03:33:48.583Z,2.60
2023-01-25T03:36:17.382Z,2.73
2023-01-25T03:38:44.766Z,2.85
2023-01-25T03:41:14.058Z,2.34
2023-01-25T03:43:41.539Z,2.32
2023-01-25T03:46:09.205Z,2.24
2023-01-25T03:48:36.584Z,2.29
2023-01-25T03:51:03.982Z,2.10
2023-01-25T03:53:32.943Z,2.24
2023-01-25T03:56:02.063Z,2.49
2023-01-25T03:58:30.392Z,2.38
2023-01-25T04:00:59.332Z,2.31
2023-01-25T04:03:28.143Z,2.55
2023-01-25T04:05:57.884Z,2.49
2023-01-25T04:08:26.065Z,2.14
2023-01-25T04:10:56.656Z,2.47
2023-01-25T04:13:25.762Z,2.49
2023-01-25T04:15:53.232Z,2.39
2023-01-25T04:18:20.709Z,2.38
2023-01-25T04:20:53.539Z,2.30
2023-01-25T04:23:20.974Z,2.28
2023-01-25T04:25:55.139Z,2.46
2023-01-25T04:28:22.735Z,2.24
2023-01-25T04:30:50.308Z,2.23
2023-01-25T04:33:18.264Z,2.43
2023-01-25T04:35:45.885Z,2.10
2023-01-25T04:38:13.746Z,2.10
2023-01-25T04:40:41.249Z,2.01
2023-01-25T04:43:10.373Z,2.14
2023-01-25T04:45:37.768Z,2.18
2023-01-25T04:48:09.659Z,2.43
2023-01-25T04:50:37.114Z,2.39
2023-01-25T04:53:07.545Z,2.09
2023-01-25T04:55:34.995Z,2.41
2023-01-25T04:58:02.957Z,2.61
2023-01-25T05:00:32.616Z,2.65
2023-01-25T05:03:00.147Z,2.62
2023-01-25T05:05:27.647Z,2.55
2023-01-25T05:07:55.059Z,2.69
2023-01-25T05:10:22.650Z,2.69
2023-01-25T05:12:50.126Z,2.88
2023-01-25T05:15:17.490Z,2.56
2023-01-25T05:17:46.247Z,2.69
2023-01-25T05:20:13.959Z,2.74
2023-01-25T05:22:41.390Z,2.83
2023-01-25T05:25:29.567Z,2.46
2023-01-25T05:27:56.035Z,2.62
2023-01-25T05:30:23.485Z,2.73
2023-01-25T05:32:52.300Z,2.72
2023-01-25T05:35:19.746Z,2.22
2023-01-25T05:37:47.143Z,2.56
2023-01-25T05:40:14.781Z,2.52
2023-01-25T05:42:42.222Z,2.57
2023-01-25T05:45:11.460Z,2.72
2023-01-25T05:47:39.101Z,2.36
2023-01-25T05:50:09.654Z,2.38
2023-01-25T05:52:37.183Z,2.66
2023-01-25T05:55:05.075Z,2.46
2023-01-25T05:57:32.457Z,2.59
2023-01-25T05:59:59.837Z,2.64
2023-01-25T06:02:27.352Z,2.62
2023-01-25T06:04:54.853Z,2.82
2023-01-25T06:07:24.834Z,2.80
2023-01-25T06:09:52.277Z,2.54
2023-01-25T06:12:21.787Z,2.80
2023-01-25T06:14:49.254Z,2.33
2023-01-25T06:17:16.614Z,2.69
2023-01-25T06:19:44.049Z,2.77
2023-01-25T06:22:11.465Z,2.59
2023-01-25T06:24:40.341Z,2.61
2023-01-25T06:27:07.679Z,2.56
2023-01-25T06:29:35.179Z,2.24
2023-01-25T06:32:02.589Z,2.30
2023-01-25T06:34:30.032Z,2.28
2023-01-25T06:36:57.420Z,2.13
2023-01-25T06:39:24.865Z,2.30
2023-01-25T06:41:54.936Z,2.71
2023-01-25T06:44:22.332Z,2.72
2023-01-25T06:46:49.753Z,2.82
2023-01-25T06:49:17.269Z,2.75
2023-01-25T06:51:44.624Z,2.71
2023-01-25T06:54:12.047Z,2.72
2023-01-25T06:56:39.422Z,2.37
2023-01-25T06:59:08.142Z,2.29
2023-01-25T07:01:35.544Z,2.58
2023-01-25T07:04:02.909Z,2.61
2023-01-25T07:06:33.069Z,2.65
2023-01-25T07:09:05.994Z,2.69
2023-01-25T07:11:33.417Z,2.62
2023-01-25T07:14:03.022Z,2.76
2023-01-25T07:16:36.475Z,2.47
2023-01-25T07:19:03.921Z,2.36
2023-01-25T07:21:31.305Z,2.39
2023-01-25T07:24:02.202Z,2.40
2023-01-25T07:26:29.823Z,2.50
2023-01-25T07:28:58.852Z,2.69
2023-01-25T07:31:26.902Z,2.73
2023-01-25T07:33:57.687Z,2.63
2023-01-25T07:36:25.635Z,2.78
2023-01-25T07:38:54.137Z,2.90
2023-01-25T07:41:21.482Z,2.80
2023-01-25T07:43:48.959Z,2.62
2023-01-25T07:46:16.548Z,2.66
2023-01-25T07:48:48.112Z,2.78
2023-01-25T07:51:23.434Z,2.79
2023-01-25T07:53:52.112Z,2.75
2023-01-25T07:56:20.058Z,2.88
2023-01-25T07:58:47.705Z,2.87
2023-01-25T08:01:16.256Z,2.89
2023-01-25T08:03:44.664Z,2.90
2023-01-25T08:06:12.405Z,2.80
2023-01-25T08:08:42.584Z,2.54
2023-01-25T08:11:12.994Z,2.80
2023-01-25T08:13:40.361Z,2.90
2023-01-25T08:16:07.823Z,2.52
2023-01-25T08:18:36.084Z,2.56
2023-01-25T08:21:04.321Z,2.80
2023-01-25T08:23:31.813Z,2.59
2023-01-25T08:26:04.157Z,2.32
2023-01-25T08:28:32.149Z,2.26
2023-01-25T08:31:06.271Z,2.63
2023-01-25T08:33:33.704Z,2.64
2023-01-25T08:36:01.009Z,2.73
2023-01-25T08:38:28.378Z,2.29
2023-01-25T08:40:55.724Z,2.36
2023-01-25T08:43:24.727Z,2.33
2023-01-25T08:45:57.486Z,2.35
2023-01-25T08:48:24.858Z,2.34
2023-01-25T08:50:55.010Z,2.54
2023-01-25T08:53:22.365Z,2.77
2023-01-25T08:55:49.761Z,2.84
2023-01-25T08:58:19.749Z,2.77
2023-01-25T09:00:49.241Z,2.85
2023-01-25T09:03:18.014Z,2.73
2023-01-25T09:05:45.552Z,2.86
2023-01-25T09:08:12.897Z,2.60
2023-01-25T09:10:40.261Z,2.69
2023-01-25T09:13:08.752Z,2.61
2023-01-25T09:15:36.231Z,2.66
2023-01-25T09:18:05.144Z,2.63
2023-01-25T09:20:34.332Z,2.86
2023-01-25T09:23:02.105Z,2.68
2023-01-25T09:25:29.441Z,2.88
2023-01-25T09:27:56.843Z,2.73
2023-01-25T09:30:33.935Z,2.44
2023-01-25T09:33:06.271Z,2.72
2023-01-25T09:35:35.610Z,2.66
2023-01-25T09:38:03.230Z,2.75
2023-01-25T09:40:34.997Z,2.57
2023-01-25T09:43:06.827Z,2.69
2023-01-25T09:45:35.455Z,2.57
2023-01-25T09:48:14.401Z,2.70
2023-01-25T09:50:58.123Z,2.82
2023-01-25T09:53:35.827Z,2.82
2023-01-25T09:56:05.969Z,2.56
2023-01-25T09:58:35.752Z,2.35
2023-01-25T10:01:14.472Z,2.57
2023-01-25T10:03:49.489Z,2.59
2023-01-25T10:06:18.041Z,2.70
2023-01-25T10:08:49.904Z,2.51
2023-01-25T10:11:22.297Z,2.50
2023-01-25T10:13:50.087Z,2.57
2023-01-25T10:16:25.943Z,2.77
2023-01-25T10:19:05.408Z,2.85
2023-01-25T10:21:36.382Z,2.86
2023-01-25T10:24:39.349Z,2.75
2023-01-25T10:27:15.053Z,2.69
2023-01-25T10:29:42.418Z,2.54
2023-01-25T10:32:15.607Z,2.71
2023-01-25T10:34:55.819Z,2.78
2023-01-25T10:37:26.510Z,2.38
2023-01-25T10:39:58.435Z,2.64
2023-01-25T10:42:27.748Z,2.46
2023-01-25T10:44:55.108Z,2.74
2023-01-25T10:47:25.226Z,2.44
2023-01-25T10:49:55.371Z,2.53
2023-01-25T10:52:24.357Z,2.44
2023-01-25T10:55:12.688Z,2.63
2023-01-25T10:57:44.085Z,2.51
2023-01-25T11:00:21.771Z,2.64
2023-01-25T11:02:49.559Z,2.59
2023-01-25T11:05:27.761Z,2.70
2023-01-25T11:07:55.854Z,2.71
2023-01-25T11:10:31.871Z,2.64
2023-01-25T11:13:21.724Z,2.68
2023-01-25T11:15:50.981Z,2.81
2023-01-25T11:18:20.329Z,2.63
2023-01-25T11:20:50.185Z,2.47
2023-01-25T11:23:24.097Z,2.63
2023-01-25T11:25:52.157Z,2.44
2023-01-25T11:28:22.842Z,2.35
2023-01-25T11:30:51.134Z,2.32
2023-01-25T11:33:20.678Z,2.26
2023-01-25T11:36:06.161Z,2.31
2023-01-25T11:38:33.721Z,2.31
2023-01-25T11:41:09.157Z,2.33
2023-01-25T11:43:54.149Z,2.10
2023-01-25T11:46:30.147Z,2.17
2023-01-25T11:49:10.453Z,2.01
2023-01-25T11:51:42.772Z,2.18
2023-01-25T11:54:38.619Z,2.36
2023-01-25T11:57:14.645Z,2.50
2023-01-25T11:59:55.833Z,2.66
2023-01-25T12:02:52.447Z,2.41
2023-01-25T12:05:28.407Z,2.41
2023-01-25T12:08:06.597Z,2.65
2023-01-25T12:10:39.565Z,2.45
2023-01-25T12:13:13.532Z,2.36
2023-01-25T12:15:48.126Z,2.66
2023-01-25T12:18:36.515Z,2.44
2023-01-25T12:21:08.401Z,2.45
2023-01-25T12:23:56.579Z,2.62
2023-01-25T12:26:27.669Z,2.58
2023-01-25T12:29:00.140Z,2.39
2023-01-25T12:31:31.529Z,2.18
2023-01-25T12:34:03.368Z,2.35
2023-01-25T12:36:33.802Z,2.29
2023-01-25T12:39:04.705Z,2.41
2023-01-25T12:41:37.115Z,2.47
2023-01-25T12:44:09.613Z,2.62
2023-01-25T12:46:42.246Z,2.72
2023-01-25T12:49:16.806Z,2.59
2023-01-25T12:51:45.437Z,2.67
2023-01-25T12:54:19.361Z,2.80
2023-01-25T12:56:50.042Z,2.72
2023-01-25T12:59:21.656Z,2.64
2023-01-25T13:01:52.686Z,2.45
2023-01-25T13:04:30.804Z,2.42
2023-01-25T13:07:03.453Z,2.33
2023-01-25T13:09:35.580Z,2.64
2023-01-25T13:12:04.606Z,2.40
2023-01-25T13:14:36.806Z,2.39
2023-01-25T13:17:25.909Z,2.24
2023-01-25T13:19:54.328Z,2.33
2023-01-25T13:22:58.512Z,2.38
2023-01-25T13:25:28.286Z,2.30
2023-01-25T13:28:39.832Z,2.48
2023-01-25T13:31:07.231Z,2.74
2023-01-25T13:33:36.104Z,2.66
2023-01-25T13:36:38.141Z,2.58
2023-01-25T13:39:39.229Z,2.44
2023-01-25T13:42:19.583Z,2.63
2023-01-25T13:44:50.725Z,2.77
2023-01-25T13:47:21.501Z,2.78
2023-01-25T13:49:53.089Z,2.94
2023-01-25T13:52:22.315Z,2.84
2023-01-25T13:54:51.541Z,2.90
2023-01-25T13:57:23.594Z,2.72
2023-01-25T14:00:09.925Z,2.63
2023-01-25T14:02:38.430Z,2.74
2023-01-25T14:05:08.211Z,2.82
2023-01-25T14:07:36.911Z,2.70
2023-01-25T14:10:10.209Z,2.80
2023-01-25T14:12:39.904Z,2.72
2023-01-25T14:15:22.036Z,2.63
2023-01-25T14:18:04.739Z,2.78
2023-01-25T14:20:32.133Z,2.59
2023-01-25T14:22:59.441Z,2.64
2023-01-25T14:25:26.890Z,2.62
2023-01-25T14:27:57.029Z,2.69
2023-01-25T14:30:25.835Z,2.54
2023-01-25T14:32:55.334Z,2.58
2023-01-25T14:35:42.789Z,2.42
2023-01-25T14:38:31.527Z,2.62
2023-01-25T14:41:06.754Z,2.60
2023-01-25T14:43:37.325Z,2.56
2023-01-25T14:46:19.441Z,2.65
2023-01-25T14:48:47.016Z,2.65
2023-01-25T14:51:18.060Z,2.70
2023-01-25T14:53:47.401Z,2.73
2023-01-25T14:56:27.131Z,2.76
2023-01-25T14:58:59.803Z,2.87
2023-01-25T15:01:32.042Z,2.40
2023-01-25T15:03:59.717Z,2.46
2023-01-25T15:06:27.030Z,2.75
2023-01-25T15:08:54.458Z,2.62
2023-01-25T15:11:38.487Z,2.66
2023-01-25T15:14:17.638Z,2.64
2023-01-25T15:16:45.343Z,2.78
2023-01-25T15:19:22.821Z,2.78
2023-01-25T15:21:50.429Z,2.85
2023-01-25T15:24:18.027Z,2.91
2023-01-25T15:26:50.870Z,2.94
2023-01-25T15:29:21.751Z,2.84
2023-01-25T15:31:50.181Z,2.92
2023-01-25T15:34:19.327Z,2.94
2023-01-25T15:36:47.095Z,2.91
2023-01-25T15:39:16.081Z,2.90
2023-01-25T15:41:43.613Z,2.71
2023-01-25T15:44:11.312Z,2.63
2023-01-25T15:46:41.289Z,2.53
2023-01-25T15:49:09.601Z,2.65
2023-01-25T15:51:36.931Z,2.56
2023-01-25T15:54:04.637Z,2.34
2023-01-25T15:56:33.685Z,2.23
2023-01-25T15:59:02.038Z,2.32
2023-01-25T16:01:30.554Z,2.46
2023-01-25T16:04:00.386Z,2.58
2023-01-25T16:06:38.057Z,2.69
2023-01-25T16:09:14.222Z,2.49
2023-01-25T16:11:41.565Z,2.62
2023-01-25T16:14:08.900Z,2.67
2023-01-25T16:16:40.404Z,2.75
2023-01-25T16:19:13.097Z,2.80
2023-01-25T16:21:40.655Z,2.74
2023-01-25T16:24:08.806Z,2.47
2023-01-25T16:26:38.282Z,2.48
2023-01-25T16:29:05.599Z,2.44
2023-01-25T16:31:33.662Z,2.53
2023-01-25T16:34:01.528Z,2.19
2023-01-25T16:36:31.324Z,2.22
2023-01-25T16:39:07.555Z,2.10
2023-01-25T16:41:34.916Z,2.13
2023-01-25T16:44:03.092Z,2.24
2023-01-25T16:46:30.507Z,2.41
2023-01-25T16:48:58.704Z,2.43
2023-01-25T16:51:27.709Z,2.29
2023-01-25T16:53:58.056Z,2.36
2023-01-25T16:56:26.737Z,2.38
2023-01-25T16:58:55.521Z,2.35
2023-01-25T17:01:24.439Z,2.56
2023-01-25T17:03:52.209Z,2.47
2023-01-25T17:06:21.617Z,2.63
2023-01-25T17:08:49.501Z,2.60
2023-01-25T17:11:19.469Z,2.52
2023-01-25T17:13:49.544Z,2.71
2023-01-25T17:16:17.031Z,2.77
2023-01-25T17:18:44.423Z,2.77
2023-01-25T17:21:14.369Z,2.79
2023-01-25T17:23:42.630Z,2.61
2023-01-25T17:26:12.320Z,2.57
2023-01-25T17:28:41.076Z,2.25
2023-01-25T17:31:14.792Z,2.44
2023-01-25T17:33:42.396Z,2.56
2023-01-25T17:36:10.186Z,2.41
2023-01-25T17:38:37.645Z,2.42
2023-01-25T17:41:05.554Z,2.62
2023-01-25T17:43:34.520Z,2.43
2023-01-25T17:46:11.454Z,2.28
2023-01-25T17:48:38.863Z,2.35
2023-01-25T17:51:06.724Z,2.38
2023-01-25T17:53:34.417Z,2.44
2023-01-25T17:56:02.722Z,2.38
2023-01-25T17:58:30.103Z,2.44
2023-01-25T18:01:12.562Z,2.51
2023-01-25T18:03:42.319Z,2.47
2023-01-25T18:06:10.289Z,2.63
2023-01-25T18:08:40.074Z,2.46
2023-01-25T18:11:10.097Z,2.67
2023-01-25T18:13:40.218Z,2.58
2023-01-25T18:16:09.417Z,2.34
2023-01-25T18:18:37.376Z,2.35
2023-01-25T18:21:08.886Z,2.24
2023-01-25T18:23:37.160Z,2.54
2023-01-25T18:26:06.420Z,2.49
2023-01-25T18:28:33.977Z,2.43
2023-01-25T18:31:04.466Z,2.49
2023-01-25T18:33:33.103Z,2.43
2023-01-25T18:36:02.756Z,2.24
2023-01-25T18:38:32.708Z,2.31
2023-01-25T18:41:00.270Z,2.33
2023-01-25T18:43:28.017Z,2.36
2023-01-25T18:45:56.206Z,2.48
2023-01-25T18:48:30.148Z,2.36
2023-01-25T18:50:58.649Z,2.50
2023-01-25T18:53:27.065Z,2.22
2023-01-25T18:56:04.090Z,2.35
2023-01-25T18:58:34.070Z,2.46
2023-01-25T19:01:03.987Z,2.26
2023-01-25T19:03:31.345Z,2.44
2023-01-25T19:05:58.833Z,2.51
2023-01-25T19:08:27.000Z,2.39
2023-01-25T19:10:59.963Z,2.32
2023-01-25T19:13:31.270Z,2.28
2023-01-25T19:16:03.562Z,2.10
2023-01-25T19:18:32.682Z,2.12
2023-01-25T19:21:00.031Z,2.18
2023-01-25T19:23:27.658Z,1.86
2023-01-25T19:25:55.548Z,2.13
2023-01-25T19:28:24.034Z,1.77
2023-01-25T19:30:52.896Z,2.08
2023-01-25T19:33:20.279Z,2.12
2023-01-25T19:35:47.625Z,2.02
2023-01-25T19:38:15.029Z,2.09
2023-01-25T19:40:42.348Z,2.15
2023-01-25T19:43:09.672Z,1.84
2023-01-25T19:45:36.984Z,1.88
2023-01-25T19:48:08.090Z,2.07
2023-01-25T19:50:35.392Z,1.77
2023-01-25T19:53:03.438Z,2.13
2023-01-25T19:55:32.269Z,2.01
2023-01-25T19:57:59.602Z,2.03
2023-01-25T20:00:27.368Z,2.10
2023-01-25T20:02:59.354Z,2.14
2023-01-25T20:05:32.963Z,2.27
2023-01-25T20:08:00.299Z,2.06
2023-01-25T20:10:27.596Z,2.19
2023-01-25T20:12:54.905Z,2.18
2023-01-25T20:15:22.205Z,2.31
2023-01-25T20:17:49.504Z,2.20
2023-01-25T20:20:17.356Z,2.23
2023-01-25T20:22:49.080Z,2.15
2023-01-25T20:25:16.413Z,2.30
2023-01-25T20:27:43.721Z,2.36
2023-01-25T20:30:12.105Z,2.37
2023-01-25T20:32:39.437Z,2.23
2023-01-25T20:35:08.787Z,2.30
2023-01-25T20:37:36.285Z,2.30
2023-01-25T20:40:05.586Z,2.06
2023-01-25T20:42:32.997Z,2.13
2023-01-25T20:45:00.308Z,1.92
2023-01-25T20:47:27.694Z,1.98
2023-01-25T20:49:55.087Z,2.16
2023-01-25T20:52:22.413Z,2.03
2023-01-25T20:54:49.827Z,2.05
2023-01-25T20:57:18.526Z,1.82
2023-01-25T20:59:45.867Z,2.07
2023-01-25T21:02:13.287Z,2.12
2023-01-25T21:04:40.639Z,1.92
2023-01-25T21:07:08.046Z,1.77
2023-01-25T21:09:35.358Z,2.08
2023-01-25T21:12:04.456Z,2.09
2023-01-25T21:14:33.170Z,1.98
2023-01-25T21:17:00.650Z,2.00
2023-01-25T21:19:28.009Z,1.88
2023-01-25T21:21:55.399Z,1.77
2023-01-25T21:24:22.861Z,1.71
2023-01-25T21:26:50.219Z,1.81
2023-01-25T21:29:18.497Z,1.77
2023-01-25T21:31:49.069Z,1.85
2023-01-25T21:34:16.488Z,1.94
2023-01-25T21:36:43.828Z,1.99
2023-01-25T21:39:11.194Z,1.87
2023-01-25T21:41:38.554Z,1.92
2023-01-25T21:44:23.578Z,1.67
2023-01-25T21:47:16.356Z,1.61
2023-01-25T21:49:57.336Z,1.95
2023-01-25T21:52:24.836Z,1.81
2023-01-25T21:54:52.320Z,1.77
2023-01-25T21:57:20.496Z,1.85
2023-01-25T21:59:48.753Z,1.68
2023-01-25T22:02:17.762Z,1.79
2023-01-25T22:04:45.216Z,1.88
2023-01-25T22:07:12.654Z,1.86
2023-01-25T22:09:40.109Z,1.70
2023-01-25T22:12:07.616Z,1.55
2023-01-25T22:14:35.191Z,1.76
2023-01-25T22:17:03.089Z,1.71
2023-01-25T22:19:31.847Z,1.77
2023-01-25T22:21:59.222Z,1.94
2023-01-25T22:24:26.663Z,2.07
2023-01-25T22:26:59.504Z,1.92
2023-01-25T22:29:27.214Z,1.88
2023-01-25T22:31:54.661Z,1.91
2023-01-25T22:34:22.170Z,1.85
2023-01-25T22:36:50.938Z,2.00
2023-01-25T22:39:18.402Z,1.92
2023-01-25T22:41:45.802Z,1.99
2023-01-25T22:44:14.455Z,1.86
2023-01-25T22:46:42.008Z,1.82
2023-01-25T22:49:09.378Z,1.92
2023-01-25T22:51:36.742Z,1.84
2023-01-25T22:54:06.043Z,1.98
2023-01-25T22:56:34.590Z,1.86
2023-01-25T22:59:02.462Z,2.02
2023-01-25T23:01:31.856Z,2.05
2023-01-25T23:03:59.860Z,1.85
2023-01-25T23:06:28.520Z,1.88
2023-01-25T23:08:56.867Z,1.85
2023-01-25T23:11:31.932Z,1.80
2023-01-25T23:14:17.848Z,2.01
2023-01-25T23:16:45.282Z,1.85
2023-01-25T23:19:11.873Z,1.92
2023-01-25T23:21:39.368Z,1.95
2023-01-25T23:24:07.546Z,1.96
2023-01-25T23:26:38.969Z,1.48
2023-01-25T23:29:08.459Z,1.62
2023-01-25T23:31:36.336Z,1.77
2023-01-25T23:34:05.846Z,1.71
2023-01-25T23:36:35.078Z,1.75
2023-01-25T23:39:03.205Z,1.75
2023-01-25T23:41:31.393Z,1.73
2023-01-25T23:44:00.751Z,1.73
2023-01-25T23:46:28.607Z,1.74
2023-01-25T23:48:56.166Z,1.70
2023-01-25T23:51:23.787Z,1.83
2023-01-25T23:53:53.294Z,1.74
2023-01-25T23:56:22.479Z,1.76
2023-01-25T23:58:51.058Z,1.87
